Pagrindinis puslapis
METAR-TAF:

METAR-TAF

Oro uostai :

Tamperės oro uostas

Tamperė, Suomija

platuma: 61-25N, ilguma: 023-35E, Aukštis: 112 m

Dabartinis oras

Ataskaita buvo paskelbta 22 minutes, ne 06:50 UTC
Vėjas 1 kt nuo kintamojo kryptimis
Temperatūra -7°C
Drėgmė 93%
Slėgis 992 hPa
Matomumas 10 km arba daugiau
Apsiniaukę ne aukštis 2800 ft

METAR: EFTP 020650Z VRB01KT 9999 OVC028 M07/M08 Q0992

Laikas: 09:12 (07:12 UTC)

Prognozė

Ataskaita buvo paskelbta 1 valandą ir 48 minutes, ne 05:24 UTC
Prognozė galioja nuo 02 metu 06 UTC su 03 metu 06 UTC
Vėjas 6 kt iš Pietų/Pietryčių
Matomumas 10 km arba daugiau
Su prošvaistėmis ne aukštis 2500 ft
sniegas
Laikinai
nuo 02 metu 12 UTC su 02 metu 16 UTC
Su prošvaistėmis ne aukštis 1200 ft
Tikimybė 30% :
Laikinai
nuo 02 metu 12 UTC su 02 metu 16 UTC
Matomumas: 6000 m
Su prošvaistėmis ne aukštis 800 ft
Tikimybė 30%
nuo 03 metu 01 UTC su 03 metu 06 UTC
Su prošvaistėmis ne aukštis 800 ft

TAF: EFTP 020524Z 0206/0306 16006KT 9999 -SN BKN025 TEMPO 0212/0216 BKN012 PROB30 TEMPO 0212/0216 6000 BKN008 PROB30 0301/0306 BKN008

Orai ataskaitas ir orų prognozės (METAR, TAF).

turimą stotys yra geltonos ir raudonos taškus žemėlapyje.

Perkelti pele per norėdami pamatyti stoties vardą.

Tada spustelėkite, norėdami matyti oro stebėjimo ir prognozės.

Norėdami pakeisti žemėlapį: spustelėkite ant žalios mygtukų su juodo kryžiaus žemyn,; žalią mygtuką su brūkšneliu, jei norite nutolinti; arba žalių rodyklių gretimoms žemėlapius.


METAR-TAF: